createdAt,value
2023-04-15T00:02:00.385Z,8.10
2023-04-15T00:04:48.832Z,8.10
2023-04-15T00:07:38.616Z,8.00
2023-04-15T00:10:26.711Z,8.00
2023-04-15T00:13:15.485Z,8.00
2023-04-15T00:16:03.636Z,8.10
2023-04-15T00:18:51.778Z,8.10
2023-04-15T00:21:39.805Z,8.00
2023-04-15T00:24:29.166Z,7.90
2023-04-15T00:27:17.326Z,8.00
2023-04-15T00:30:05.797Z,8.00
2023-04-15T00:32:53.921Z,7.90
2023-04-15T00:35:41.996Z,8.00
2023-04-15T00:38:30.172Z,7.90
2023-04-15T00:41:20.959Z,7.90
2023-04-15T00:44:09.363Z,8.00
2023-04-15T00:46:57.940Z,8.00
2023-04-15T00:49:46.033Z,8.00
2023-04-15T00:52:34.799Z,8.00
2023-04-15T00:55:22.953Z,8.00
2023-04-15T00:58:12.444Z,8.00
2023-04-15T01:01:00.901Z,8.00
2023-04-15T01:03:49.824Z,8.00
2023-04-15T01:06:38.030Z,8.00
2023-04-15T01:09:26.311Z,8.00
2023-04-15T01:12:16.400Z,8.00
2023-04-15T01:15:06.519Z,8.00
2023-04-15T01:17:54.631Z,7.90
2023-04-15T01:20:42.754Z,7.90
2023-04-15T01:23:30.800Z,7.90
2023-04-15T01:26:21.632Z,7.90
2023-04-15T01:29:09.739Z,7.90
2023-04-15T01:31:57.849Z,7.90
2023-04-15T01:34:46.105Z,7.90
2023-04-15T01:37:34.417Z,7.90
2023-04-15T01:40:22.852Z,7.90
2023-04-15T01:43:12.700Z,7.90
2023-04-15T01:46:00.809Z,7.90
2023-04-15T01:48:48.864Z,7.90
2023-04-15T01:51:36.891Z,7.90
2023-04-15T01:54:24.941Z,7.90
2023-04-15T01:57:13.292Z,7.90
2023-04-15T02:00:02.691Z,7.90
2023-04-15T02:02:51.325Z,7.90
2023-04-15T02:05:39.420Z,7.90
2023-04-15T02:08:27.598Z,7.90
2023-04-15T02:11:15.662Z,7.90
2023-04-15T02:14:04.239Z,7.90
2023-04-15T02:16:53.731Z,7.90
2023-04-15T02:19:42.332Z,8.00
2023-04-15T02:22:30.369Z,8.00
2023-04-15T02:25:18.484Z,8.10
2023-04-15T02:28:08.286Z,8.10
2023-04-15T02:30:57.671Z,8.10
2023-04-15T02:33:47.188Z,8.10
2023-04-15T02:36:35.701Z,8.10
2023-04-15T02:39:23.796Z,8.10
2023-04-15T02:42:12.010Z,8.10
2023-04-15T02:45:00.268Z,8.10
2023-04-15T02:47:48.387Z,8.10
2023-04-15T02:50:39.839Z,8.10
2023-04-15T02:53:27.946Z,8.20
2023-04-15T02:56:17.333Z,8.10
2023-04-15T02:59:05.578Z,8.10
2023-04-15T03:01:53.702Z,8.10
2023-04-15T03:04:41.779Z,8.10
2023-04-15T03:07:31.153Z,8.10
2023-04-15T03:10:19.355Z,8.10
2023-04-15T03:13:07.419Z,8.10
2023-04-15T03:15:55.593Z,8.10
2023-04-15T03:18:43.662Z,8.10
2023-04-15T03:21:31.794Z,8.10
2023-04-15T03:24:21.253Z,8.10
2023-04-15T03:27:09.513Z,8.10
2023-04-15T03:29:57.756Z,8.10
2023-04-15T03:32:46.230Z,8.10
2023-04-15T03:35:34.331Z,8.20
2023-04-15T03:38:22.373Z,8.20
2023-04-15T03:41:12.083Z,8.20
2023-04-15T03:44:00.131Z,8.10
2023-04-15T03:46:48.455Z,8.10
2023-04-15T03:49:36.874Z,8.20
2023-04-15T03:52:24.956Z,8.10
2023-04-15T03:55:13.338Z,8.10
2023-04-15T03:58:02.793Z,8.10
2023-04-15T04:00:51.300Z,8.10
2023-04-15T04:03:39.567Z,8.20
2023-04-15T04:06:27.824Z,8.20
2023-04-15T04:09:15.869Z,8.20
2023-04-15T04:12:04.273Z,8.20
2023-04-15T04:14:53.656Z,8.10
2023-04-15T04:17:42.380Z,8.10
2023-04-15T04:20:32.008Z,8.20
2023-04-15T04:23:20.269Z,8.20
2023-04-15T04:26:08.942Z,8.20
2023-04-15T04:28:57.050Z,8.20
2023-04-15T04:31:47.014Z,8.20
2023-04-15T04:34:35.110Z,8.20
2023-04-15T04:37:23.339Z,8.20
2023-04-15T04:40:11.887Z,8.20
2023-04-15T04:42:59.966Z,8.20
2023-04-15T04:45:48.016Z,8.20
2023-04-15T04:48:37.406Z,8.20
2023-04-15T04:51:26.253Z,8.20
2023-04-15T04:54:14.295Z,8.20
2023-04-15T04:57:02.401Z,8.20
2023-04-15T04:59:50.470Z,8.20
2023-04-15T05:02:38.838Z,8.20
2023-04-15T05:05:28.413Z,8.20
2023-04-15T05:08:16.701Z,8.30
2023-04-15T05:11:04.796Z,8.30
2023-04-15T05:13:52.863Z,8.30
2023-04-15T05:16:40.984Z,8.30
2023-04-15T05:19:29.050Z,8.40
2023-04-15T05:22:18.455Z,8.30
2023-04-15T05:25:06.774Z,8.30
2023-04-15T05:27:54.807Z,8.30
2023-04-15T05:30:42.976Z,8.30
2023-04-15T05:33:31.085Z,8.40
2023-04-15T05:36:19.218Z,8.30
2023-04-15T05:39:09.067Z,8.40
2023-04-15T05:41:57.692Z,8.30
2023-04-15T05:44:45.861Z,8.40
2023-04-15T05:47:33.914Z,8.40
2023-04-15T05:50:22.030Z,8.40
2023-04-15T05:53:10.545Z,8.30
2023-04-15T05:56:00.146Z,8.30
2023-04-15T05:58:48.212Z,8.30
2023-04-15T06:01:36.241Z,8.40
2023-04-15T06:04:24.472Z,8.40
2023-04-15T06:07:12.536Z,8.40
2023-04-15T06:10:00.779Z,8.40
2023-04-15T06:12:50.172Z,8.40
2023-04-15T06:15:38.221Z,8.50
2023-04-15T06:18:26.279Z,8.40
2023-04-15T06:21:14.351Z,8.50
2023-04-15T06:24:03.004Z,8.50
2023-04-15T06:26:51.264Z,8.50
2023-04-15T06:29:40.979Z,8.50
2023-04-15T06:32:29.060Z,8.60
2023-04-15T06:35:17.110Z,8.60
2023-04-15T06:38:05.175Z,8.60
2023-04-15T06:40:53.374Z,8.70
2023-04-15T06:43:41.491Z,8.60
2023-04-15T06:46:30.962Z,8.60
2023-04-15T06:49:19.004Z,8.70
2023-04-15T06:52:07.170Z,8.70
2023-04-15T06:54:55.188Z,8.70
2023-04-15T06:57:43.260Z,8.70
2023-04-15T07:00:32.234Z,8.70
2023-04-15T07:03:21.689Z,8.80
2023-04-15T07:06:10.189Z,8.80
2023-04-15T07:08:58.245Z,8.80
2023-04-15T07:11:46.334Z,8.80
2023-04-15T07:14:34.356Z,8.80
2023-04-15T07:17:22.465Z,8.80
2023-04-15T07:20:12.818Z,8.90
2023-04-15T07:23:00.832Z,8.90
2023-04-15T07:25:48.817Z,8.90
2023-04-15T07:28:36.790Z,9.00
2023-04-15T07:31:24.863Z,9.00
2023-04-15T07:34:12.922Z,9.00
2023-04-15T07:37:02.231Z,9.10
2023-04-15T07:39:50.222Z,9.10
2023-04-15T07:42:40.021Z,9.10
2023-04-15T07:45:29.226Z,9.10
2023-04-15T07:48:17.276Z,9.20
2023-04-15T07:51:05.490Z,9.20
2023-04-15T07:53:54.973Z,9.20
2023-04-15T07:56:43.068Z,9.30
2023-04-15T07:59:33.454Z,9.30
2023-04-15T08:02:31.867Z,9.30
2023-04-15T08:05:20.204Z,9.40
2023-04-15T08:08:08.365Z,9.50
2023-04-15T08:10:57.728Z,9.50
2023-04-15T08:13:45.783Z,9.50
2023-04-15T08:16:34.228Z,9.50
2023-04-15T08:19:23.000Z,9.60
2023-04-15T08:22:17.724Z,9.60
2023-04-15T08:25:06.886Z,9.70
2023-04-15T08:27:58.102Z,9.70
2023-04-15T08:30:46.615Z,9.70
2023-04-15T08:33:34.628Z,9.70
2023-04-15T08:36:22.724Z,9.80
2023-04-15T08:39:10.720Z,9.80
2023-04-15T08:42:01.675Z,9.80
2023-04-15T08:44:52.097Z,9.90
2023-04-15T08:47:41.862Z,9.90
2023-04-15T08:50:30.436Z,9.90
2023-04-15T08:53:19.249Z,10.00
2023-04-15T08:56:08.587Z,10.00
2023-04-15T08:58:56.807Z,10.10
2023-04-15T09:01:46.512Z,10.20
2023-04-15T09:04:34.804Z,10.20
2023-04-15T09:07:22.845Z,10.20
2023-04-15T09:10:11.672Z,10.20
2023-04-15T09:12:59.872Z,10.20
2023-04-15T09:15:48.452Z,10.30
2023-04-15T09:18:38.480Z,10.30
2023-04-15T09:21:26.505Z,10.40
2023-04-15T09:24:14.571Z,10.40
2023-04-15T09:27:02.607Z,10.40
2023-04-15T09:29:51.278Z,10.50
2023-04-15T09:32:48.865Z,10.50
2023-04-15T09:35:38.546Z,10.50
2023-04-15T09:38:26.707Z,10.60
2023-04-15T09:41:18.616Z,10.60
2023-04-15T09:44:06.809Z,10.70
2023-04-15T09:46:54.928Z,10.70
2023-04-15T09:49:56.045Z,10.80
2023-04-15T09:52:45.696Z,10.80
2023-04-15T09:55:34.126Z,10.80
2023-04-15T09:58:23.505Z,10.80
2023-04-15T10:01:11.772Z,10.80
2023-04-15T10:04:03.687Z,10.90
2023-04-15T10:06:52.340Z,10.80
2023-04-15T10:09:41.711Z,10.90
2023-04-15T10:12:30.574Z,11.00
2023-04-15T10:15:19.732Z,11.00
2023-04-15T10:18:09.355Z,11.10
2023-04-15T10:20:57.419Z,11.00
2023-04-15T10:23:46.133Z,11.10
2023-04-15T10:26:35.775Z,11.10
2023-04-15T10:29:25.599Z,11.10
2023-04-15T10:32:14.055Z,11.00
2023-04-15T10:35:02.396Z,11.10
2023-04-15T10:37:50.461Z,11.10
2023-04-15T10:40:39.922Z,11.10
2023-04-15T10:43:29.290Z,11.10
2023-04-15T10:46:19.601Z,11.10
2023-04-15T10:49:08.876Z,11.10
2023-04-15T10:51:58.833Z,11.10
2023-04-15T10:54:47.576Z,11.00
2023-04-15T10:57:36.310Z,11.00
2023-04-15T11:00:27.635Z,11.10
2023-04-15T11:03:16.151Z,11.10
2023-04-15T11:06:04.384Z,11.10
2023-04-15T11:08:54.344Z,11.10
2023-04-15T11:12:00.956Z,11.10
2023-04-15T11:14:48.990Z,11.10
2023-04-15T11:17:38.416Z,11.00
2023-04-15T11:20:28.922Z,11.10
2023-04-15T11:23:17.095Z,11.10
2023-04-15T11:26:09.256Z,11.10
2023-04-15T11:28:59.778Z,11.10
2023-04-15T11:31:49.695Z,11.10
2023-04-15T11:34:39.344Z,11.10
2023-04-15T11:37:30.897Z,11.10
2023-04-15T11:40:23.311Z,11.10
2023-04-15T11:43:12.031Z,11.10
2023-04-15T11:46:00.962Z,11.20
2023-04-15T11:48:49.197Z,11.20
2023-04-15T11:51:38.751Z,11.20
2023-04-15T11:54:26.865Z,11.20
2023-04-15T11:57:14.978Z,11.20
2023-04-15T12:00:05.139Z,11.20
2023-04-15T12:03:12.632Z,11.20
2023-04-15T12:06:12.417Z,11.20
2023-04-15T12:09:02.939Z,11.20
2023-04-15T12:11:52.854Z,11.20
2023-04-15T12:14:42.348Z,11.20
2023-04-15T12:17:31.002Z,11.30
2023-04-15T12:20:44.687Z,11.30
2023-04-15T12:23:32.797Z,11.20
2023-04-15T12:26:28.569Z,11.20
2023-04-15T12:29:17.635Z,11.20
2023-04-15T12:32:06.801Z,11.30
2023-04-15T12:34:55.342Z,11.30
2023-04-15T12:37:43.697Z,11.40
2023-04-15T12:40:31.701Z,11.30
2023-04-15T12:43:21.181Z,11.30
2023-04-15T12:46:10.220Z,11.30
2023-04-15T12:48:58.303Z,11.30
2023-04-15T12:51:46.373Z,11.20
2023-04-15T12:54:34.745Z,11.20
2023-04-15T12:57:22.923Z,11.20
2023-04-15T13:00:13.284Z,11.30
2023-04-15T13:03:02.066Z,11.30
2023-04-15T13:05:51.577Z,11.30
2023-04-15T13:08:42.716Z,11.30
2023-04-15T13:11:36.553Z,11.40
2023-04-15T13:14:24.630Z,11.40
2023-04-15T13:17:14.258Z,11.50
2023-04-15T13:20:02.315Z,11.50
2023-04-15T13:22:50.490Z,11.60
2023-04-15T13:25:38.563Z,11.60
2023-04-15T13:28:27.155Z,11.60
2023-04-15T13:31:15.360Z,11.60
2023-04-15T13:34:05.100Z,11.70
2023-04-15T13:36:53.348Z,11.70
2023-04-15T13:39:41.701Z,11.70
2023-04-15T13:42:29.756Z,11.70
2023-04-15T13:45:17.893Z,11.80
2023-04-15T13:48:06.307Z,11.70
2023-04-15T13:50:55.707Z,11.70
2023-04-15T13:53:43.752Z,11.70
2023-04-15T13:56:32.255Z,11.70
2023-04-15T13:59:21.195Z,11.60
2023-04-15T14:02:09.304Z,11.60
2023-04-15T14:04:57.407Z,11.60
2023-04-15T14:07:46.868Z,11.50
2023-04-15T14:10:34.969Z,11.50
2023-04-15T14:13:22.994Z,11.60
2023-04-15T14:16:11.337Z,11.60
2023-04-15T14:18:59.695Z,11.60
2023-04-15T14:21:47.717Z,11.60
2023-04-15T14:24:37.170Z,11.70
2023-04-15T14:27:25.279Z,11.70
2023-04-15T14:30:13.777Z,11.70
2023-04-15T14:33:01.916Z,11.60
2023-04-15T14:35:50.497Z,11.70
2023-04-15T14:38:39.962Z,11.70
2023-04-15T14:41:29.379Z,11.80
2023-04-15T14:44:18.316Z,11.80
2023-04-15T14:47:06.730Z,11.80
2023-04-15T14:49:54.788Z,11.80
2023-04-15T14:52:42.873Z,11.90
2023-04-15T14:55:30.988Z,12.00
2023-04-15T14:58:20.495Z,11.90
2023-04-15T15:01:09.254Z,12.00
2023-04-15T15:03:57.377Z,12.00
2023-04-15T15:06:47.360Z,12.00
2023-04-15T15:09:36.821Z,12.00
2023-04-15T15:12:24.862Z,12.00
2023-04-15T15:15:28.049Z,11.90
2023-04-15T15:18:20.093Z,11.90
2023-04-15T15:21:10.660Z,12.00
2023-04-15T15:23:58.759Z,12.00
2023-04-15T15:26:47.166Z,12.00
2023-04-15T15:29:35.407Z,11.90
2023-04-15T15:32:24.921Z,11.90
2023-04-15T15:35:13.015Z,11.90
2023-04-15T15:38:01.427Z,11.80
2023-04-15T15:40:49.530Z,11.80
2023-04-15T15:43:37.554Z,11.80
2023-04-15T15:46:25.722Z,11.80
2023-04-15T15:49:15.143Z,11.80
2023-04-15T15:52:03.208Z,11.80
2023-04-15T15:54:51.276Z,11.80
2023-04-15T15:57:39.292Z,11.90
2023-04-15T16:00:27.335Z,11.90
2023-04-15T16:03:16.114Z,11.80
2023-04-15T16:06:06.176Z,11.80
2023-04-15T16:08:54.211Z,11.80
2023-04-15T16:11:42.317Z,11.80
2023-04-15T16:14:30.525Z,11.80
2023-04-15T16:17:18.578Z,11.80
2023-04-15T16:20:07.252Z,11.80
2023-04-15T16:22:56.970Z,11.80
2023-04-15T16:25:45.573Z,11.80
2023-04-15T16:28:33.581Z,11.80
2023-04-15T16:31:21.707Z,11.80
2023-04-15T16:34:09.981Z,11.80
2023-04-15T16:36:58.180Z,11.90
2023-04-15T16:39:47.533Z,11.90
2023-04-15T16:42:36.760Z,11.90
2023-04-15T16:45:24.791Z,11.80
2023-04-15T16:48:12.834Z,11.80
2023-04-15T16:51:01.128Z,11.80
2023-04-15T16:53:50.722Z,11.80
2023-04-15T16:56:40.104Z,11.80
2023-04-15T16:59:28.204Z,11.80
2023-04-15T17:02:16.414Z,11.70
2023-04-15T17:05:04.716Z,11.80
2023-04-15T17:07:52.782Z,11.80
2023-04-15T17:10:40.801Z,11.80
2023-04-15T17:13:30.186Z,11.70
2023-04-15T17:16:18.224Z,11.70
2023-04-15T17:19:06.416Z,11.70
2023-04-15T17:21:55.142Z,11.60
2023-04-15T17:24:44.020Z,11.60
2023-04-15T17:27:32.298Z,11.60
2023-04-15T17:30:21.826Z,11.50
2023-04-15T17:33:55.929Z,11.50
2023-04-15T17:36:17.836Z,11.50
2023-04-15T17:39:06.205Z,11.50
2023-04-15T17:41:54.502Z,11.60
2023-04-15T17:44:42.504Z,11.60
2023-04-15T17:47:32.057Z,11.60
2023-04-15T17:50:20.296Z,11.50
2023-04-15T17:53:08.309Z,11.50
2023-04-15T17:55:56.645Z,11.40
2023-04-15T17:58:44.966Z,11.40
2023-04-15T18:01:33.063Z,11.40
2023-04-15T18:04:25.738Z,11.40
2023-04-15T18:07:15.311Z,11.40
2023-04-15T18:10:03.336Z,11.40
2023-04-15T18:12:51.428Z,11.40
2023-04-15T18:15:39.518Z,11.40
2023-04-15T18:18:27.590Z,11.40
2023-04-15T18:21:16.975Z,11.40
2023-04-15T18:24:05.217Z,11.40
2023-04-15T18:26:53.435Z,11.40
2023-04-15T18:29:41.735Z,11.30
2023-04-15T18:32:32.539Z,11.30
2023-04-15T18:35:20.932Z,11.30
2023-04-15T18:38:10.362Z,11.30
2023-04-15T18:40:58.788Z,11.40
2023-04-15T18:43:46.830Z,11.30
2023-04-15T18:46:35.008Z,11.30
2023-04-15T18:49:23.401Z,11.30
2023-04-15T18:52:11.976Z,11.30
2023-04-15T18:55:03.149Z,11.20
2023-04-15T18:57:51.994Z,11.20
2023-04-15T19:00:43.681Z,11.20
2023-04-15T19:03:32.251Z,11.20
2023-04-15T19:06:20.537Z,11.20
2023-04-15T19:09:08.936Z,11.20
2023-04-15T19:11:58.393Z,11.20
2023-04-15T19:14:46.461Z,11.20
2023-04-15T19:17:34.563Z,11.20
2023-04-15T19:20:22.718Z,11.10
2023-04-15T19:23:11.149Z,11.10
2023-04-15T19:25:59.725Z,11.20
2023-04-15T19:28:49.152Z,11.10
2023-04-15T19:31:37.214Z,11.10
2023-04-15T19:34:25.888Z,11.10
2023-04-15T19:37:14.709Z,11.10
2023-04-15T19:40:02.781Z,11.10
2023-04-15T19:42:51.124Z,11.10
2023-04-15T19:45:40.506Z,11.10
2023-04-15T19:48:28.607Z,11.10
2023-04-15T19:51:16.683Z,11.10
2023-04-15T19:54:04.803Z,11.10
2023-04-15T19:56:52.893Z,11.10
2023-04-15T19:59:40.934Z,11.10
2023-04-15T20:02:31.398Z,11.10
2023-04-15T20:05:19.480Z,11.10
2023-04-15T20:08:07.669Z,11.10
2023-04-15T20:10:55.718Z,11.00
2023-04-15T20:13:43.784Z,11.00
2023-04-15T20:16:32.837Z,11.10
2023-04-15T20:19:22.182Z,11.00
2023-04-15T20:22:10.211Z,11.00
2023-04-15T20:24:58.255Z,11.00
2023-04-15T20:27:46.295Z,11.00
2023-04-15T20:30:34.398Z,10.90
2023-04-15T20:33:24.684Z,10.90
2023-04-15T20:36:14.036Z,10.90
2023-04-15T20:39:02.117Z,10.90
2023-04-15T20:41:50.735Z,10.90
2023-04-15T20:44:39.374Z,11.00
2023-04-15T20:47:27.643Z,10.90
2023-04-15T20:50:16.067Z,11.00
2023-04-15T20:53:05.607Z,10.90
2023-04-15T20:55:53.662Z,11.00
2023-04-15T20:58:41.660Z,10.90
2023-04-15T21:01:29.689Z,10.90
2023-04-15T21:04:17.776Z,10.90
2023-04-15T21:07:05.998Z,10.90
2023-04-15T21:09:56.059Z,10.90
2023-04-15T21:12:44.113Z,10.90
2023-04-15T21:15:32.142Z,10.90
2023-04-15T21:18:20.750Z,10.90
2023-04-15T21:21:08.867Z,10.90
2023-04-15T21:23:56.915Z,10.90
2023-04-15T21:26:46.346Z,10.90
2023-04-15T21:29:34.426Z,10.90
2023-04-15T21:32:22.523Z,10.90
2023-04-15T21:35:10.562Z,10.80
2023-04-15T21:37:58.713Z,10.90
2023-04-15T21:40:46.736Z,10.80
2023-04-15T21:43:36.148Z,10.80
2023-04-15T21:46:25.734Z,10.80
2023-04-15T21:49:21.845Z,10.80
2023-04-15T21:52:10.991Z,10.80
2023-04-15T21:54:59.029Z,10.80
2023-04-15T21:57:47.038Z,10.80
2023-04-15T22:00:36.427Z,10.80
2023-04-15T22:03:24.766Z,10.80
2023-04-15T22:06:13.817Z,10.80
2023-04-15T22:09:01.876Z,10.80
2023-04-15T22:11:50.032Z,10.80
2023-04-15T22:14:38.154Z,10.80
2023-04-15T22:17:28.247Z,10.90
2023-04-15T22:20:16.360Z,10.90
2023-04-15T22:23:07.795Z,10.90
2023-04-15T22:25:55.909Z,10.90
2023-04-15T22:28:43.966Z,10.90
2023-04-15T22:31:32.083Z,10.90
2023-04-15T22:34:21.934Z,10.90
2023-04-15T22:37:09.982Z,10.80
2023-04-15T22:39:58.219Z,10.80
2023-04-15T22:42:47.061Z,10.80
2023-04-15T22:45:35.082Z,10.80
2023-04-15T22:48:23.257Z,10.80
2023-04-15T22:51:12.577Z,10.80
2023-04-15T22:54:00.919Z,10.70
2023-04-15T22:56:48.910Z,10.70
2023-04-15T22:59:36.936Z,10.70
2023-04-15T23:02:25.084Z,10.70
2023-04-15T23:05:13.568Z,10.70
2023-04-15T23:08:03.215Z,10.80
2023-04-15T23:10:51.427Z,10.70
2023-04-15T23:13:39.491Z,10.70
2023-04-15T23:16:27.979Z,10.70
2023-04-15T23:19:16.027Z,10.70
2023-04-15T23:22:04.126Z,10.80
2023-04-15T23:24:53.467Z,10.80
2023-04-15T23:27:41.504Z,10.70
2023-04-15T23:30:29.627Z,10.80
2023-04-15T23:33:17.619Z,10.70
2023-04-15T23:36:06.129Z,10.70
2023-04-15T23:38:54.143Z,10.70
2023-04-15T23:41:43.536Z,10.70
2023-04-15T23:44:31.563Z,10.60
2023-04-15T23:47:19.699Z,10.60
2023-04-15T23:50:08.361Z,10.60
2023-04-15T23:52:56.396Z,10.60
2023-04-15T23:55:44.455Z,10.60
2023-04-15T23:58:34.675Z,10.60
